createdAt,value
2022-08-26T00:03:39.408Z,63.83
2022-08-26T00:08:43.811Z,63.23
2022-08-26T00:13:49.651Z,59.02
2022-08-26T00:18:53.225Z,59.70
2022-08-26T00:23:56.279Z,66.06
2022-08-26T00:28:58.996Z,61.88
2022-08-26T00:34:03.179Z,60.30
2022-08-26T00:39:07.588Z,58.26
2022-08-26T00:44:14.053Z,63.72
2022-08-26T00:49:33.868Z,62.00
2022-08-26T00:54:42.376Z,58.50
2022-08-26T00:59:51.439Z,64.16
2022-08-26T01:04:59.109Z,62.38
2022-08-26T01:10:07.995Z,58.40
2022-08-26T01:15:16.342Z,63.71
2022-08-26T01:20:28.342Z,62.36
2022-08-26T01:25:33.578Z,58.51
2022-08-26T01:30:39.508Z,64.31
2022-08-26T01:35:43.390Z,63.13
2022-08-26T01:40:47.225Z,59.64
2022-08-26T01:45:51.583Z,59.12
2022-08-26T01:50:55.885Z,65.39
2022-08-26T01:56:01.330Z,61.23
2022-08-26T02:01:06.410Z,58.45
2022-08-26T02:06:10.371Z,64.04
2022-08-26T02:11:13.685Z,62.05
2022-08-26T02:16:19.477Z,58.30
2022-08-26T02:21:25.073Z,64.41
2022-08-26T02:26:27.887Z,62.54
2022-08-26T02:31:30.587Z,58.48
2022-08-26T02:36:33.446Z,62.49
2022-08-26T02:41:44.073Z,63.82
2022-08-26T02:46:48.364Z,59.80
2022-08-26T02:51:52.696Z,58.64
2022-08-26T02:56:56.367Z,65.63
2022-08-26T03:02:00.492Z,64.59
2022-08-26T03:07:04.254Z,61.25
2022-08-26T03:12:08.045Z,58.74
2022-08-26T03:17:10.901Z,61.24
2022-08-26T03:22:14.533Z,65.34
2022-08-26T03:27:17.828Z,60.76
2022-08-26T03:32:20.805Z,58.55
2022-08-26T03:37:23.588Z,63.43
2022-08-26T03:42:26.472Z,63.97
2022-08-26T03:47:29.266Z,59.09
2022-08-26T03:52:32.077Z,59.87
2022-08-26T03:57:34.806Z,66.42
2022-08-26T04:02:38.156Z,60.76
2022-08-26T04:07:42.982Z,58.18
2022-08-26T04:12:46.361Z,62.59
2022-08-26T04:17:49.299Z,64.13
2022-08-26T04:22:52.645Z,58.77
2022-08-26T04:27:55.635Z,59.81
2022-08-26T04:32:58.709Z,66.72
2022-08-26T04:38:03.368Z,61.24
2022-08-26T04:43:08.987Z,58.60
2022-08-26T04:48:12.333Z,63.70
2022-08-26T04:53:20.533Z,64.55
2022-08-26T04:58:25.228Z,59.92
2022-08-26T05:03:30.534Z,57.97
2022-08-26T05:08:34.182Z,62.75
2022-08-26T05:13:39.223Z,66.26
2022-08-26T05:18:43.704Z,61.38
2022-08-26T05:23:50.553Z,58.25
2022-08-26T05:28:54.735Z,60.10
2022-08-26T05:33:59.236Z,66.45
2022-08-26T05:39:07.935Z,61.04
2022-08-26T05:44:20.246Z,57.75
2022-08-26T05:49:26.418Z,62.41
2022-08-26T05:54:29.544Z,59.15
2022-08-26T05:59:32.500Z,58.50
2022-08-26T06:04:35.559Z,62.63
2022-08-26T06:09:39.907Z,55.74
2022-08-26T06:14:42.878Z,59.83
2022-08-26T06:19:45.717Z,59.86
2022-08-26T06:25:07.442Z,55.54
2022-08-26T06:30:13.204Z,58.75
2022-08-26T06:35:16.404Z,63.44
2022-08-26T06:40:21.030Z,57.42
2022-08-26T06:45:24.230Z,57.89
2022-08-26T06:50:27.109Z,60.83
2022-08-26T06:55:30.477Z,56.08
2022-08-26T07:00:33.901Z,58.35
2022-08-26T07:05:37.116Z,61.13
2022-08-26T07:10:39.891Z,55.40
2022-08-26T07:15:42.800Z,61.05
2022-08-26T07:20:45.830Z,55.40
2022-08-26T07:25:48.553Z,56.97
2022-08-26T07:30:52.072Z,60.23
2022-08-26T07:35:56.247Z,56.54
2022-08-26T07:40:59.523Z,57.67
2022-08-26T07:46:04.291Z,59.86
2022-08-26T07:51:07.627Z,59.92
2022-08-26T07:56:11.626Z,60.87
2022-08-26T08:01:14.894Z,53.73
2022-08-26T08:06:21.358Z,56.15
2022-08-26T08:11:27.297Z,58.32
2022-08-26T08:16:32.224Z,58.85
2022-08-26T08:21:36.178Z,59.98
2022-08-26T08:26:39.479Z,59.21
2022-08-26T08:31:58.353Z,61.59
2022-08-26T08:37:07.344Z,55.09
2022-08-26T08:42:36.774Z,52.68
2022-08-26T08:47:50.522Z,55.36
2022-08-26T08:53:15.283Z,55.67
2022-08-26T08:58:22.079Z,55.00
2022-08-26T09:03:40.376Z,55.04
2022-08-26T09:08:47.030Z,54.94
2022-08-26T09:13:55.347Z,55.38
2022-08-26T09:19:11.472Z,54.97
2022-08-26T09:24:14.268Z,54.69
2022-08-26T09:29:26.849Z,51.24
2022-08-26T09:34:29.667Z,51.23
2022-08-26T09:39:37.523Z,47.44
2022-08-26T09:45:03.919Z,49.54
2022-08-26T09:50:30.160Z,45.94
2022-08-26T09:55:33.095Z,47.57
2022-08-26T10:00:39.369Z,47.05
2022-08-26T10:06:00.207Z,48.00
2022-08-26T10:11:11.247Z,45.92
2022-08-26T10:16:14.585Z,46.67
2022-08-26T10:21:37.729Z,46.64
2022-08-26T10:26:54.441Z,46.75
2022-08-26T10:32:03.404Z,43.96
2022-08-26T10:37:15.636Z,45.85
2022-08-26T10:42:37.606Z,45.48
2022-08-26T10:47:48.697Z,44.63
2022-08-26T10:53:06.374Z,45.10
2022-08-26T10:58:30.201Z,44.53
2022-08-26T11:04:14.269Z,45.84
2022-08-26T11:09:45.948Z,47.04
2022-08-26T11:14:58.667Z,45.09
2022-08-26T11:20:08.933Z,45.75
2022-08-26T11:25:18.450Z,46.47
2022-08-26T11:30:21.543Z,48.03
2022-08-26T11:35:26.902Z,47.96
2022-08-26T11:40:35.410Z,47.33
2022-08-26T11:45:42.204Z,46.00
2022-08-26T11:50:55.394Z,44.05
2022-08-26T11:56:00.568Z,44.20
2022-08-26T12:01:09.928Z,44.72
2022-08-26T12:06:23.019Z,42.12
2022-08-26T12:11:27.285Z,42.65
2022-08-26T12:16:36.048Z,41.61
2022-08-26T12:21:38.826Z,41.49
2022-08-26T12:26:42.119Z,41.51
2022-08-26T12:31:44.959Z,41.72
2022-08-26T12:36:56.839Z,40.00
2022-08-26T12:42:04.501Z,40.37
2022-08-26T12:47:42.150Z,38.79
2022-08-26T12:52:52.393Z,41.17
2022-08-26T12:58:13.528Z,38.11
2022-08-26T13:03:34.557Z,38.96
2022-08-26T13:08:41.344Z,38.85
2022-08-26T13:13:45.832Z,38.44
2022-08-26T13:18:57.722Z,37.72
2022-08-26T13:24:16.848Z,39.04
2022-08-26T13:29:20.142Z,39.06
2022-08-26T13:34:24.234Z,38.00
2022-08-26T13:39:27.340Z,37.94
2022-08-26T13:44:30.295Z,38.08
2022-08-26T13:49:33.364Z,36.85
2022-08-26T13:54:36.411Z,36.89
2022-08-26T13:59:39.266Z,37.57
2022-08-26T14:04:43.600Z,39.69
2022-08-26T14:09:46.709Z,40.30
2022-08-26T14:14:49.617Z,40.79
2022-08-26T14:19:53.814Z,41.61
2022-08-26T14:24:56.960Z,41.09
2022-08-26T14:30:00.269Z,41.77
2022-08-26T14:35:03.325Z,41.50
2022-08-26T14:40:07.212Z,42.37
2022-08-26T14:45:15.998Z,43.04
2022-08-26T14:50:24.862Z,44.28
2022-08-26T14:55:28.203Z,40.84
2022-08-26T15:00:31.512Z,41.70
2022-08-26T15:05:34.646Z,39.77
2022-08-26T15:10:38.191Z,40.87
2022-08-26T15:15:41.083Z,38.07
2022-08-26T15:20:44.654Z,36.06
2022-08-26T15:25:48.321Z,35.81
2022-08-26T15:30:51.338Z,36.38
2022-08-26T15:35:55.981Z,35.02
2022-08-26T15:41:02.955Z,33.15
2022-08-26T15:46:11.726Z,33.81
2022-08-26T15:51:22.657Z,31.24
2022-08-26T15:56:32.661Z,30.35
2022-08-26T16:01:37.325Z,31.25
2022-08-26T16:06:42.563Z,31.03
2022-08-26T16:11:45.431Z,31.01
2022-08-26T16:16:49.232Z,30.81
2022-08-26T16:21:52.128Z,31.35
2022-08-26T16:26:54.986Z,31.44
2022-08-26T16:31:57.850Z,31.10
2022-08-26T16:37:00.757Z,30.74
2022-08-26T16:42:03.741Z,30.85
2022-08-26T16:47:06.916Z,31.95
2022-08-26T16:52:11.338Z,32.84
2022-08-26T16:57:16.908Z,32.43
2022-08-26T17:02:20.246Z,33.81
2022-08-26T17:07:23.635Z,35.51
2022-08-26T17:12:26.847Z,35.90
2022-08-26T17:17:29.708Z,37.85
2022-08-26T17:22:34.679Z,40.29
2022-08-26T17:27:37.812Z,42.39
2022-08-26T17:32:42.402Z,44.90
2022-08-26T17:37:45.275Z,47.21
2022-08-26T17:42:48.831Z,47.64
2022-08-26T17:47:53.707Z,47.77
2022-08-26T17:52:56.496Z,48.41
2022-08-26T17:57:59.486Z,50.01
2022-08-26T18:03:02.777Z,52.10
2022-08-26T18:08:06.421Z,54.57
2022-08-26T18:13:09.690Z,55.85
2022-08-26T18:18:16.079Z,55.98
2022-08-26T18:23:18.978Z,59.06
2022-08-26T18:28:21.815Z,57.76
2022-08-26T18:33:24.629Z,56.81
2022-08-26T18:38:28.463Z,58.79
2022-08-26T18:43:31.292Z,58.65
2022-08-26T18:48:36.765Z,59.60
2022-08-26T18:53:39.530Z,60.23
2022-08-26T18:58:42.249Z,71.65
2022-08-26T19:03:46.282Z,61.66
2022-08-26T19:08:50.175Z,55.37
2022-08-26T19:13:55.297Z,56.91
2022-08-26T19:18:58.942Z,58.77
2022-08-26T19:24:04.177Z,60.45
2022-08-26T19:29:07.136Z,61.46
2022-08-26T19:34:10.585Z,69.02
2022-08-26T19:39:13.460Z,61.32
2022-08-26T19:44:37.781Z,55.55
2022-08-26T19:49:40.578Z,56.37
2022-08-26T19:54:44.550Z,59.00
2022-08-26T19:59:47.517Z,60.66
2022-08-26T20:04:50.282Z,69.72
2022-08-26T20:09:53.116Z,62.98
2022-08-26T20:14:55.951Z,57.07
2022-08-26T20:20:28.454Z,58.37
2022-08-26T20:25:36.344Z,60.42
2022-08-26T20:30:40.170Z,68.16
2022-08-26T20:35:43.075Z,60.25
2022-08-26T20:40:46.287Z,56.39
2022-08-26T20:45:50.257Z,58.15
2022-08-26T20:50:57.533Z,60.39
2022-08-26T20:56:02.875Z,67.79
2022-08-26T21:01:08.271Z,60.91
2022-08-26T21:06:11.558Z,56.46
2022-08-26T21:11:15.176Z,58.39
2022-08-26T21:16:19.713Z,61.50
2022-08-26T21:21:25.025Z,69.60
2022-08-26T21:26:28.398Z,61.90
2022-08-26T21:31:32.375Z,56.99
2022-08-26T21:36:35.455Z,59.98
2022-08-26T21:41:39.217Z,66.17
2022-08-26T21:46:43.796Z,59.70
2022-08-26T21:51:48.487Z,57.62
2022-08-26T21:56:51.446Z,61.12
2022-08-26T22:01:54.718Z,66.90
2022-08-26T22:06:59.199Z,60.06
2022-08-26T22:12:02.204Z,56.77
2022-08-26T22:17:05.545Z,59.83
2022-08-26T22:22:08.584Z,66.38
2022-08-26T22:27:12.174Z,59.06
2022-08-26T22:32:15.241Z,57.94
2022-08-26T22:37:18.162Z,64.04
2022-08-26T22:42:21.007Z,64.00
2022-08-26T22:47:24.273Z,58.26
2022-08-26T22:52:27.491Z,57.45
2022-08-26T22:57:30.494Z,61.50
2022-08-26T23:02:33.340Z,68.33
2022-08-26T23:07:36.598Z,60.90
2022-08-26T23:12:39.513Z,56.71
2022-08-26T23:17:42.617Z,59.39
2022-08-26T23:22:45.544Z,66.44
2022-08-26T23:27:48.851Z,60.04
2022-08-26T23:32:52.155Z,57.17
2022-08-26T23:37:55.072Z,60.87
2022-08-26T23:43:05.738Z,66.54
2022-08-26T23:48:08.917Z,60.21
2022-08-26T23:53:19.489Z,56.20
2022-08-26T23:58:22.946Z,60.34
